sensor_id;sensor_type;location;lat;lon;timestamp;P1;durP1;ratioP1;P2;durP2;ratioP2
75793;SDS011;64418;47.536;19.074;2023-04-19T00:02:20;3.10;;;2.20;;
75793;SDS011;64418;47.536;19.074;2023-04-19T00:04:45;4.15;;;2.20;;
75793;SDS011;64418;47.536;19.074;2023-04-19T00:07:11;4.70;;;2.12;;
75793;SDS011;64418;47.536;19.074;2023-04-19T00:09:37;3.57;;;2.10;;
75793;SDS011;64418;47.536;19.074;2023-04-19T00:12:03;3.55;;;2.05;;
75793;SDS011;64418;47.536;19.074;2023-04-19T00:14:31;3.92;;;1.83;;
75793;SDS011;64418;47.536;19.074;2023-04-19T00:16:57;3.87;;;2.27;;
75793;SDS011;64418;47.536;19.074;2023-04-19T00:19:24;3.78;;;2.12;;
75793;SDS011;64418;47.536;19.074;2023-04-19T00:21:50;4.82;;;2.28;;
75793;SDS011;64418;47.536;19.074;2023-04-19T00:24:16;4.47;;;2.20;;
75793;SDS011;64418;47.536;19.074;2023-04-19T00:26:42;5.12;;;2.25;;
75793;SDS011;64418;47.536;19.074;2023-04-19T00:29:09;4.20;;;2.10;;
75793;SDS011;64418;47.536;19.074;2023-04-19T00:31:34;4.20;;;2.13;;
75793;SDS011;64418;47.536;19.074;2023-04-19T00:34:00;3.42;;;2.12;;
75793;SDS011;64418;47.536;19.074;2023-04-19T00:36:28;4.07;;;2.55;;
75793;SDS011;64418;47.536;19.074;2023-04-19T00:38:54;3.53;;;2.10;;
75793;SDS011;64418;47.536;19.074;2023-04-19T00:41:19;3.92;;;2.25;;
75793;SDS011;64418;47.536;19.074;2023-04-19T00:43:45;5.70;;;2.47;;
75793;SDS011;64418;47.536;19.074;2023-04-19T00:46:10;3.95;;;2.10;;
75793;SDS011;64418;47.536;19.074;2023-04-19T00:48:37;5.03;;;2.30;;
75793;SDS011;64418;47.536;19.074;2023-04-19T00:51:03;4.62;;;2.40;;
75793;SDS011;64418;47.536;19.074;2023-04-19T00:53:30;5.47;;;2.20;;
75793;SDS011;64418;47.536;19.074;2023-04-19T00:55:57;4.03;;;2.20;;
75793;SDS011;64418;47.536;19.074;2023-04-19T00:58:26;4.22;;;2.37;;
75793;SDS011;64418;47.536;19.074;2023-04-19T01:00:52;4.83;;;1.97;;
75793;SDS011;64418;47.536;19.074;2023-04-19T01:03:18;8.10;;;3.08;;
75793;SDS011;64418;47.536;19.074;2023-04-19T01:05:44;5.18;;;2.47;;
75793;SDS011;64418;47.536;19.074;2023-04-19T01:08:10;3.87;;;2.13;;
75793;SDS011;64418;47.536;19.074;2023-04-19T01:10:37;3.40;;;2.40;;
75793;SDS011;64418;47.536;19.074;2023-04-19T01:13:02;4.27;;;2.30;;
75793;SDS011;64418;47.536;19.074;2023-04-19T01:15:28;4.85;;;2.45;;
75793;SDS011;64418;47.536;19.074;2023-04-19T01:17:54;4.03;;;2.10;;
75793;SDS011;64418;47.536;19.074;2023-04-19T01:20:21;7.20;;;2.30;;
75793;SDS011;64418;47.536;19.074;2023-04-19T01:22:49;4.33;;;2.10;;
75793;SDS011;64418;47.536;19.074;2023-04-19T01:25:14;4.95;;;2.42;;
75793;SDS011;64418;47.536;19.074;2023-04-19T01:27:40;4.40;;;2.30;;
75793;SDS011;64418;47.536;19.074;2023-04-19T01:30:06;4.60;;;2.20;;
75793;SDS011;64418;47.536;19.074;2023-04-19T01:32:32;4.45;;;2.17;;
75793;SDS011;64418;47.536;19.074;2023-04-19T01:34:58;3.50;;;2.43;;
75793;SDS011;64418;47.536;19.074;2023-04-19T01:37:24;4.93;;;1.90;;
75793;SDS011;64418;47.536;19.074;2023-04-19T01:39:51;3.20;;;2.08;;
75793;SDS011;64418;47.536;19.074;2023-04-19T01:42:17;4.07;;;2.03;;
75793;SDS011;64418;47.536;19.074;2023-04-19T01:44:42;6.15;;;2.35;;
75793;SDS011;64418;47.536;19.074;2023-04-19T01:47:08;4.03;;;1.97;;
75793;SDS011;64418;47.536;19.074;2023-04-19T01:49:34;3.80;;;2.30;;
75793;SDS011;64418;47.536;19.074;2023-04-19T01:52:00;4.05;;;2.22;;
75793;SDS011;64418;47.536;19.074;2023-04-19T01:54:25;4.13;;;2.17;;
75793;SDS011;64418;47.536;19.074;2023-04-19T01:56:53;3.10;;;2.03;;
75793;SDS011;64418;47.536;19.074;2023-04-19T01:59:19;4.37;;;2.42;;
75793;SDS011;64418;47.536;19.074;2023-04-19T02:01:44;4.43;;;2.33;;
75793;SDS011;64418;47.536;19.074;2023-04-19T02:04:10;4.03;;;2.50;;
75793;SDS011;64418;47.536;19.074;2023-04-19T02:06:35;3.53;;;1.97;;
75793;SDS011;64418;47.536;19.074;2023-04-19T02:09:04;3.35;;;2.20;;
75793;SDS011;64418;47.536;19.074;2023-04-19T02:11:30;5.43;;;2.20;;
75793;SDS011;64418;47.536;19.074;2023-04-19T02:13:57;3.90;;;2.07;;
75793;SDS011;64418;47.536;19.074;2023-04-19T02:16:23;3.25;;;2.00;;
75793;SDS011;64418;47.536;19.074;2023-04-19T02:18:48;4.10;;;2.30;;
75793;SDS011;64418;47.536;19.074;2023-04-19T02:21:14;5.32;;;2.40;;
75793;SDS011;64418;47.536;19.074;2023-04-19T02:23:40;3.97;;;2.20;;
75793;SDS011;64418;47.536;19.074;2023-04-19T02:26:05;3.43;;;2.23;;
75793;SDS011;64418;47.536;19.074;2023-04-19T02:28:31;4.07;;;2.47;;
75793;SDS011;64418;47.536;19.074;2023-04-19T02:31:02;4.97;;;2.50;;
75793;SDS011;64418;47.536;19.074;2023-04-19T02:33:28;4.78;;;2.40;;
75793;SDS011;64418;47.536;19.074;2023-04-19T02:35:54;4.50;;;2.58;;
75793;SDS011;64418;47.536;19.074;2023-04-19T02:38:20;4.00;;;2.40;;
75793;SDS011;64418;47.536;19.074;2023-04-19T02:40:45;4.45;;;2.67;;
75793;SDS011;64418;47.536;19.074;2023-04-19T02:43:11;4.27;;;2.23;;
75793;SDS011;64418;47.536;19.074;2023-04-19T02:45:36;4.93;;;2.50;;
75793;SDS011;64418;47.536;19.074;2023-04-19T02:48:04;5.00;;;2.60;;
75793;SDS011;64418;47.536;19.074;2023-04-19T02:50:30;5.53;;;2.97;;
75793;SDS011;64418;47.536;19.074;2023-04-19T02:52:57;5.37;;;2.90;;
75793;SDS011;64418;47.536;19.074;2023-04-19T02:55:23;5.18;;;3.22;;
75793;SDS011;64418;47.536;19.074;2023-04-19T02:57:49;5.57;;;3.17;;
75793;SDS011;64418;47.536;19.074;2023-04-19T03:00:15;5.80;;;2.95;;
75793;SDS011;64418;47.536;19.074;2023-04-19T03:02:42;5.25;;;2.90;;
75793;SDS011;64418;47.536;19.074;2023-04-19T03:05:10;7.68;;;3.35;;
75793;SDS011;64418;47.536;19.074;2023-04-19T03:07:36;10.63;;;3.45;;
75793;SDS011;64418;47.536;19.074;2023-04-19T03:10:02;7.70;;;3.00;;
75793;SDS011;64418;47.536;19.074;2023-04-19T03:12:28;5.25;;;3.00;;
75793;SDS011;64418;47.536;19.074;2023-04-19T03:14:54;6.22;;;3.58;;
75793;SDS011;64418;47.536;19.074;2023-04-19T03:17:20;6.23;;;3.70;;
75793;SDS011;64418;47.536;19.074;2023-04-19T03:19:46;6.97;;;4.20;;
75793;SDS011;64418;47.536;19.074;2023-04-19T03:22:13;6.45;;;4.10;;
75793;SDS011;64418;47.536;19.074;2023-04-19T03:24:38;6.13;;;3.40;;
75793;SDS011;64418;47.536;19.074;2023-04-19T03:27:04;7.20;;;3.67;;
75793;SDS011;64418;47.536;19.074;2023-04-19T03:29:30;9.23;;;4.10;;
75793;SDS011;64418;47.536;19.074;2023-04-19T03:31:56;5.90;;;3.60;;
75793;SDS011;64418;47.536;19.074;2023-04-19T03:34:22;8.30;;;3.78;;
75793;SDS011;64418;47.536;19.074;2023-04-19T03:36:48;7.15;;;3.67;;
75793;SDS011;64418;47.536;19.074;2023-04-19T03:39:19;6.78;;;3.78;;
75793;SDS011;64418;47.536;19.074;2023-04-19T03:41:45;6.07;;;3.40;;
75793;SDS011;64418;47.536;19.074;2023-04-19T03:44:11;7.93;;;3.73;;
75793;SDS011;64418;47.536;19.074;2023-04-19T03:46:37;8.90;;;3.70;;
75793;SDS011;64418;47.536;19.074;2023-04-19T03:49:02;7.73;;;3.67;;
75793;SDS011;64418;47.536;19.074;2023-04-19T03:51:29;9.43;;;4.20;;
75793;SDS011;64418;47.536;19.074;2023-04-19T03:53:54;6.20;;;3.87;;
75793;SDS011;64418;47.536;19.074;2023-04-19T03:56:22;6.00;;;3.57;;
75793;SDS011;64418;47.536;19.074;2023-04-19T03:58:49;6.90;;;3.85;;
75793;SDS011;64418;47.536;19.074;2023-04-19T04:01:18;5.43;;;3.50;;
75793;SDS011;64418;47.536;19.074;2023-04-19T04:03:44;8.45;;;4.20;;
75793;SDS011;64418;47.536;19.074;2023-04-19T04:06:10;8.55;;;4.60;;
75793;SDS011;64418;47.536;19.074;2023-04-19T04:08:35;9.10;;;3.80;;
75793;SDS011;64418;47.536;19.074;2023-04-19T04:11:01;6.72;;;3.70;;
75793;SDS011;64418;47.536;19.074;2023-04-19T04:13:28;5.40;;;3.53;;
75793;SDS011;64418;47.536;19.074;2023-04-19T04:15:54;8.07;;;3.95;;
75793;SDS011;64418;47.536;19.074;2023-04-19T04:18:19;7.27;;;4.10;;
75793;SDS011;64418;47.536;19.074;2023-04-19T04:20:45;9.20;;;3.78;;
75793;SDS011;64418;47.536;19.074;2023-04-19T04:23:11;6.70;;;3.70;;
75793;SDS011;64418;47.536;19.074;2023-04-19T04:25:37;8.97;;;3.73;;
75793;SDS011;64418;47.536;19.074;2023-04-19T04:28:03;8.55;;;3.80;;
75793;SDS011;64418;47.536;19.074;2023-04-19T04:30:31;6.53;;;3.35;;
75793;SDS011;64418;47.536;19.074;2023-04-19T04:32:57;8.07;;;3.60;;
75793;SDS011;64418;47.536;19.074;2023-04-19T04:35:24;6.50;;;3.23;;
75793;SDS011;64418;47.536;19.074;2023-04-19T04:37:50;6.28;;;3.42;;
75793;SDS011;64418;47.536;19.074;2023-04-19T04:40:16;6.35;;;3.58;;
75793;SDS011;64418;47.536;19.074;2023-04-19T04:42:43;10.70;;;4.62;;
75793;SDS011;64418;47.536;19.074;2023-04-19T04:45:09;11.47;;;3.70;;
75793;SDS011;64418;47.536;19.074;2023-04-19T04:47:36;6.70;;;3.50;;
75793;SDS011;64418;47.536;19.074;2023-04-19T04:50:02;8.27;;;4.00;;
75793;SDS011;64418;47.536;19.074;2023-04-19T04:52:29;11.65;;;4.00;;
75793;SDS011;64418;47.536;19.074;2023-04-19T04:54:54;5.05;;;3.20;;
75793;SDS011;64418;47.536;19.074;2023-04-19T04:57:20;6.12;;;3.58;;
75793;SDS011;64418;47.536;19.074;2023-04-19T04:59:46;10.53;;;3.40;;
75793;SDS011;64418;47.536;19.074;2023-04-19T05:02:12;7.53;;;3.25;;
75793;SDS011;64418;47.536;19.074;2023-04-19T05:04:39;8.35;;;3.65;;
75793;SDS011;64418;47.536;19.074;2023-04-19T05:07:05;7.67;;;3.40;;
75793;SDS011;64418;47.536;19.074;2023-04-19T05:09:31;8.85;;;3.72;;
75793;SDS011;64418;47.536;19.074;2023-04-19T05:11:57;7.35;;;4.10;;
75793;SDS011;64418;47.536;19.074;2023-04-19T05:14:22;10.93;;;3.50;;
75793;SDS011;64418;47.536;19.074;2023-04-19T05:16:48;7.17;;;3.40;;
75793;SDS011;64418;47.536;19.074;2023-04-19T05:19:14;7.93;;;3.83;;
75793;SDS011;64418;47.536;19.074;2023-04-19T05:21:41;9.63;;;3.58;;
75793;SDS011;64418;47.536;19.074;2023-04-19T05:24:06;10.35;;;3.80;;
75793;SDS011;64418;47.536;19.074;2023-04-19T05:26:32;8.37;;;3.63;;
75793;SDS011;64418;47.536;19.074;2023-04-19T05:28:58;11.35;;;3.42;;
75793;SDS011;64418;47.536;19.074;2023-04-19T05:31:24;8.30;;;3.50;;
75793;SDS011;64418;47.536;19.074;2023-04-19T05:33:51;8.35;;;3.67;;
75793;SDS011;64418;47.536;19.074;2023-04-19T05:36:17;7.53;;;3.30;;
75793;SDS011;64418;47.536;19.074;2023-04-19T05:38:44;6.90;;;3.85;;
75793;SDS011;64418;47.536;19.074;2023-04-19T05:41:10;11.10;;;3.97;;
75793;SDS011;64418;47.536;19.074;2023-04-19T05:43:35;8.32;;;3.35;;
75793;SDS011;64418;47.536;19.074;2023-04-19T05:46:01;9.57;;;4.63;;
75793;SDS011;64418;47.536;19.074;2023-04-19T05:48:27;5.72;;;3.75;;
75793;SDS011;64418;47.536;19.074;2023-04-19T05:50:52;6.77;;;3.20;;
75793;SDS011;64418;47.536;19.074;2023-04-19T05:53:19;10.70;;;3.90;;
75793;SDS011;64418;47.536;19.074;2023-04-19T05:55:46;8.13;;;3.70;;
75793;SDS011;64418;47.536;19.074;2023-04-19T05:58:12;7.78;;;3.92;;
75793;SDS011;64418;47.536;19.074;2023-04-19T06:00:38;6.60;;;3.70;;
75793;SDS011;64418;47.536;19.074;2023-04-19T06:03:05;6.70;;;3.58;;
75793;SDS011;64418;47.536;19.074;2023-04-19T06:05:32;8.68;;;3.65;;
75793;SDS011;64418;47.536;19.074;2023-04-19T06:07:57;6.85;;;3.53;;
75793;SDS011;64418;47.536;19.074;2023-04-19T06:10:23;10.03;;;3.30;;
75793;SDS011;64418;47.536;19.074;2023-04-19T06:12:51;8.70;;;3.97;;
75793;SDS011;64418;47.536;19.074;2023-04-19T06:15:16;7.72;;;4.20;;
75793;SDS011;64418;47.536;19.074;2023-04-19T06:17:42;9.80;;;3.60;;
75793;SDS011;64418;47.536;19.074;2023-04-19T06:20:08;7.37;;;4.43;;
75793;SDS011;64418;47.536;19.074;2023-04-19T06:22:34;13.07;;;4.10;;
75793;SDS011;64418;47.536;19.074;2023-04-19T06:25:06;8.48;;;3.78;;
75793;SDS011;64418;47.536;19.074;2023-04-19T06:27:32;10.90;;;3.90;;
75793;SDS011;64418;47.536;19.074;2023-04-19T06:29:59;12.00;;;3.45;;
75793;SDS011;64418;47.536;19.074;2023-04-19T06:32:25;7.97;;;4.07;;
75793;SDS011;64418;47.536;19.074;2023-04-19T06:34:51;12.45;;;3.90;;
75793;SDS011;64418;47.536;19.074;2023-04-19T06:37:17;11.05;;;4.00;;
75793;SDS011;64418;47.536;19.074;2023-04-19T06:39:43;7.57;;;3.60;;
75793;SDS011;64418;47.536;19.074;2023-04-19T06:42:09;9.18;;;3.92;;
75793;SDS011;64418;47.536;19.074;2023-04-19T06:44:35;6.87;;;3.55;;
75793;SDS011;64418;47.536;19.074;2023-04-19T06:47:02;6.35;;;3.45;;
75793;SDS011;64418;47.536;19.074;2023-04-19T06:49:28;4.90;;;3.23;;
75793;SDS011;64418;47.536;19.074;2023-04-19T06:51:55;9.07;;;3.60;;
75793;SDS011;64418;47.536;19.074;2023-04-19T06:54:22;6.93;;;3.35;;
75793;SDS011;64418;47.536;19.074;2023-04-19T06:56:48;8.75;;;3.25;;
75793;SDS011;64418;47.536;19.074;2023-04-19T06:59:15;6.97;;;3.17;;
75793;SDS011;64418;47.536;19.074;2023-04-19T07:01:42;7.50;;;2.73;;
75793;SDS011;64418;47.536;19.074;2023-04-19T07:04:12;6.18;;;2.92;;
75793;SDS011;64418;47.536;19.074;2023-04-19T07:06:38;5.93;;;2.90;;
75793;SDS011;64418;47.536;19.074;2023-04-19T07:09:05;6.18;;;2.85;;
75793;SDS011;64418;47.536;19.074;2023-04-19T07:11:32;7.37;;;2.60;;
75793;SDS011;64418;47.536;19.074;2023-04-19T07:13:58;7.23;;;2.60;;
75793;SDS011;64418;47.536;19.074;2023-04-19T07:16:24;9.25;;;3.28;;
75793;SDS011;64418;47.536;19.074;2023-04-19T07:18:51;9.27;;;2.50;;
75793;SDS011;64418;47.536;19.074;2023-04-19T07:21:18;7.37;;;2.97;;
75793;SDS011;64418;47.536;19.074;2023-04-19T07:23:44;7.80;;;2.87;;
75793;SDS011;64418;47.536;19.074;2023-04-19T07:26:10;5.20;;;2.30;;
75793;SDS011;64418;47.536;19.074;2023-04-19T07:28:37;8.57;;;2.70;;
75793;SDS011;64418;47.536;19.074;2023-04-19T07:31:04;7.03;;;2.78;;
75793;SDS011;64418;47.536;19.074;2023-04-19T07:33:30;5.22;;;2.25;;
75793;SDS011;64418;47.536;19.074;2023-04-19T07:35:55;3.93;;;2.20;;
75793;SDS011;64418;47.536;19.074;2023-04-19T07:38:22;7.25;;;2.30;;
75793;SDS011;64418;47.536;19.074;2023-04-19T07:40:48;7.05;;;3.10;;
75793;SDS011;64418;47.536;19.074;2023-04-19T07:43:14;6.20;;;2.60;;
75793;SDS011;64418;47.536;19.074;2023-04-19T07:45:40;3.95;;;2.20;;
75793;SDS011;64418;47.536;19.074;2023-04-19T07:48:06;4.80;;;2.28;;
75793;SDS011;64418;47.536;19.074;2023-04-19T07:50:31;4.83;;;2.37;;
75793;SDS011;64418;47.536;19.074;2023-04-19T07:52:57;4.65;;;2.47;;
75793;SDS011;64418;47.536;19.074;2023-04-19T07:55:25;8.57;;;2.30;;
75793;SDS011;64418;47.536;19.074;2023-04-19T07:57:51;4.35;;;2.42;;
75793;SDS011;64418;47.536;19.074;2023-04-19T08:00:17;5.20;;;2.45;;
75793;SDS011;64418;47.536;19.074;2023-04-19T08:02:44;6.00;;;2.20;;
75793;SDS011;64418;47.536;19.074;2023-04-19T08:05:10;5.35;;;2.67;;
75793;SDS011;64418;47.536;19.074;2023-04-19T08:07:37;4.37;;;2.80;;
75793;SDS011;64418;47.536;19.074;2023-04-19T08:10:03;7.03;;;2.53;;
75793;SDS011;64418;47.536;19.074;2023-04-19T08:12:32;4.75;;;1.90;;
75793;SDS011;64418;47.536;19.074;2023-04-19T08:14:58;4.32;;;1.87;;
75793;SDS011;64418;47.536;19.074;2023-04-19T08:17:25;5.03;;;2.17;;
75793;SDS011;64418;47.536;19.074;2023-04-19T08:19:51;4.23;;;2.30;;
75793;SDS011;64418;47.536;19.074;2023-04-19T08:22:17;5.65;;;2.20;;
75793;SDS011;64418;47.536;19.074;2023-04-19T08:24:44;3.87;;;2.35;;
75793;SDS011;64418;47.536;19.074;2023-04-19T08:27:11;5.60;;;2.20;;
75793;SDS011;64418;47.536;19.074;2023-04-19T08:29:38;4.67;;;2.30;;
75793;SDS011;64418;47.536;19.074;2023-04-19T08:32:04;6.10;;;1.92;;
75793;SDS011;64418;47.536;19.074;2023-04-19T08:34:30;4.12;;;1.60;;
75793;SDS011;64418;47.536;19.074;2023-04-19T08:36:56;10.00;;;2.20;;
75793;SDS011;64418;47.536;19.074;2023-04-19T08:39:22;4.53;;;1.93;;
75793;SDS011;64418;47.536;19.074;2023-04-19T08:41:48;4.55;;;1.80;;
75793;SDS011;64418;47.536;19.074;2023-04-19T08:44:14;5.22;;;2.12;;
75793;SDS011;64418;47.536;19.074;2023-04-19T08:46:43;4.15;;;1.90;;
75793;SDS011;64418;47.536;19.074;2023-04-19T08:49:10;4.70;;;1.95;;
75793;SDS011;64418;47.536;19.074;2023-04-19T08:51:37;3.13;;;1.90;;
75793;SDS011;64418;47.536;19.074;2023-04-19T08:54:04;4.43;;;1.83;;
75793;SDS011;64418;47.536;19.074;2023-04-19T08:56:31;5.93;;;2.30;;
75793;SDS011;64418;47.536;19.074;2023-04-19T08:58:58;4.90;;;1.90;;
75793;SDS011;64418;47.536;19.074;2023-04-19T09:01:24;5.40;;;2.50;;
75793;SDS011;64418;47.536;19.074;2023-04-19T09:03:51;5.17;;;2.23;;
75793;SDS011;64418;47.536;19.074;2023-04-19T09:06:17;6.97;;;2.73;;
75793;SDS011;64418;47.536;19.074;2023-04-19T09:08:44;6.82;;;3.10;;
75793;SDS011;64418;47.536;19.074;2023-04-19T09:11:10;4.45;;;2.22;;
75793;SDS011;64418;47.536;19.074;2023-04-19T09:13:36;4.25;;;2.20;;
75793;SDS011;64418;47.536;19.074;2023-04-19T09:16:02;10.20;;;3.10;;
75793;SDS011;64418;47.536;19.074;2023-04-19T09:18:29;6.07;;;3.10;;
75793;SDS011;64418;47.536;19.074;2023-04-19T09:20:56;7.57;;;3.00;;
75793;SDS011;64418;47.536;19.074;2023-04-19T09:23:23;5.18;;;3.00;;
75793;SDS011;64418;47.536;19.074;2023-04-19T09:25:51;5.75;;;3.17;;
75793;SDS011;64418;47.536;19.074;2023-04-19T09:28:18;7.75;;;3.10;;
75793;SDS011;64418;47.536;19.074;2023-04-19T09:30:45;5.00;;;3.03;;
75793;SDS011;64418;47.536;19.074;2023-04-19T09:33:10;8.32;;;3.30;;
75793;SDS011;64418;47.536;19.074;2023-04-19T09:35:40;5.33;;;3.10;;
75793;SDS011;64418;47.536;19.074;2023-04-19T09:38:08;5.85;;;2.87;;
75793;SDS011;64418;47.536;19.074;2023-04-19T09:40:35;8.98;;;3.95;;
75793;SDS011;64418;47.536;19.074;2023-04-19T09:43:04;6.65;;;3.65;;
75793;SDS011;64418;47.536;19.074;2023-04-19T09:45:40;7.53;;;3.50;;
75793;SDS011;64418;47.536;19.074;2023-04-19T09:48:07;5.93;;;3.50;;
75793;SDS011;64418;47.536;19.074;2023-04-19T09:50:33;7.60;;;3.67;;
75793;SDS011;64418;47.536;19.074;2023-04-19T09:53:00;7.55;;;3.28;;
75793;SDS011;64418;47.536;19.074;2023-04-19T09:55:28;8.00;;;3.65;;
75793;SDS011;64418;47.536;19.074;2023-04-19T09:57:55;6.12;;;3.40;;
75793;SDS011;64418;47.536;19.074;2023-04-19T10:00:21;6.50;;;2.80;;
75793;SDS011;64418;47.536;19.074;2023-04-19T10:02:48;10.27;;;3.33;;
75793;SDS011;64418;47.536;19.074;2023-04-19T10:05:16;6.30;;;3.30;;
75793;SDS011;64418;47.536;19.074;2023-04-19T10:07:42;5.15;;;3.10;;
75793;SDS011;64418;47.536;19.074;2023-04-19T10:10:08;5.83;;;3.60;;
75793;SDS011;64418;47.536;19.074;2023-04-19T10:12:36;5.72;;;3.40;;
75793;SDS011;64418;47.536;19.074;2023-04-19T10:15:02;6.43;;;3.65;;
75793;SDS011;64418;47.536;19.074;2023-04-19T10:17:30;7.05;;;3.95;;
75793;SDS011;64418;47.536;19.074;2023-04-19T10:19:56;8.00;;;3.90;;
75793;SDS011;64418;47.536;19.074;2023-04-19T10:22:27;6.27;;;4.57;;
75793;SDS011;64418;47.536;19.074;2023-04-19T10:25:10;6.25;;;3.97;;
75793;SDS011;64418;47.536;19.074;2023-04-19T10:27:38;8.27;;;4.25;;
75793;SDS011;64418;47.536;19.074;2023-04-19T10:30:05;5.65;;;3.78;;
75793;SDS011;64418;47.536;19.074;2023-04-19T10:32:41;7.65;;;4.47;;
75793;SDS011;64418;47.536;19.074;2023-04-19T10:35:08;6.60;;;4.20;;
75793;SDS011;64418;47.536;19.074;2023-04-19T10:37:38;7.63;;;4.47;;
75793;SDS011;64418;47.536;19.074;2023-04-19T10:40:05;7.03;;;4.60;;
75793;SDS011;64418;47.536;19.074;2023-04-19T10:45:37;5.75;;;4.57;;
75793;SDS011;64418;47.536;19.074;2023-04-19T10:48:03;7.72;;;4.10;;
75793;SDS011;64418;47.536;19.074;2023-04-19T10:50:36;8.53;;;4.30;;
75793;SDS011;64418;47.536;19.074;2023-04-19T10:56:08;8.68;;;3.92;;
75793;SDS011;64418;47.536;19.074;2023-04-19T11:01:34;9.07;;;3.65;;
75793;SDS011;64418;47.536;19.074;2023-04-19T11:04:01;7.53;;;3.83;;
75793;SDS011;64418;47.536;19.074;2023-04-19T11:06:27;6.03;;;3.95;;
75793;SDS011;64418;47.536;19.074;2023-04-19T11:08:54;7.40;;;4.00;;
75793;SDS011;64418;47.536;19.074;2023-04-19T11:11:20;9.57;;;4.03;;
75793;SDS011;64418;47.536;19.074;2023-04-19T11:13:46;6.33;;;3.53;;
75793;SDS011;64418;47.536;19.074;2023-04-19T11:16:12;8.10;;;3.60;;
75793;SDS011;64418;47.536;19.074;2023-04-19T11:18:40;7.20;;;3.83;;
75793;SDS011;64418;47.536;19.074;2023-04-19T11:21:06;9.93;;;4.15;;
75793;SDS011;64418;47.536;19.074;2023-04-19T11:23:37;6.40;;;3.60;;
75793;SDS011;64418;47.536;19.074;2023-04-19T11:26:03;5.82;;;3.45;;
75793;SDS011;64418;47.536;19.074;2023-04-19T11:28:29;4.40;;;3.30;;
75793;SDS011;64418;47.536;19.074;2023-04-19T11:31:00;5.32;;;3.28;;
75793;SDS011;64418;47.536;19.074;2023-04-19T11:33:26;4.97;;;3.27;;
75793;SDS011;64418;47.536;19.074;2023-04-19T11:35:59;13.93;;;4.00;;
75793;SDS011;64418;47.536;19.074;2023-04-19T11:38:26;8.18;;;5.05;;
75793;SDS011;64418;47.536;19.074;2023-04-19T11:40:57;7.53;;;5.28;;
75793;SDS011;64418;47.536;19.074;2023-04-19T11:43:24;8.23;;;5.90;;
75793;SDS011;64418;47.536;19.074;2023-04-19T11:46:03;9.63;;;5.82;;
75793;SDS011;64418;47.536;19.074;2023-04-19T11:48:29;8.30;;;5.10;;
75793;SDS011;64418;47.536;19.074;2023-04-19T11:50:56;8.68;;;5.25;;
75793;SDS011;64418;47.536;19.074;2023-04-19T11:53:25;7.00;;;4.87;;
75793;SDS011;64418;47.536;19.074;2023-04-19T11:55:52;8.25;;;5.65;;
75793;SDS011;64418;47.536;19.074;2023-04-19T11:58:24;6.73;;;4.90;;
75793;SDS011;64418;47.536;19.074;2023-04-19T12:00:51;8.37;;;5.30;;
75793;SDS011;64418;47.536;19.074;2023-04-19T12:03:19;6.55;;;5.00;;
75793;SDS011;64418;47.536;19.074;2023-04-19T12:05:51;7.95;;;5.78;;
75793;SDS011;64418;47.536;19.074;2023-04-19T12:08:28;10.90;;;6.18;;
75793;SDS011;64418;47.536;19.074;2023-04-19T12:10:54;8.30;;;5.00;;
75793;SDS011;64418;47.536;19.074;2023-04-19T12:13:21;10.60;;;6.07;;
75793;SDS011;64418;47.536;19.074;2023-04-19T12:15:46;9.70;;;5.80;;
75793;SDS011;64418;47.536;19.074;2023-04-19T12:18:13;11.48;;;5.97;;
75793;SDS011;64418;47.536;19.074;2023-04-19T12:20:42;10.03;;;6.23;;
75793;SDS011;64418;47.536;19.074;2023-04-19T12:23:10;9.55;;;6.15;;
75793;SDS011;64418;47.536;19.074;2023-04-19T12:25:39;11.18;;;7.35;;
75793;SDS011;64418;47.536;19.074;2023-04-19T12:28:05;11.00;;;6.60;;
75793;SDS011;64418;47.536;19.074;2023-04-19T12:30:31;12.03;;;7.17;;
75793;SDS011;64418;47.536;19.074;2023-04-19T12:32:57;10.27;;;6.90;;
75793;SDS011;64418;47.536;19.074;2023-04-19T12:35:23;11.00;;;6.72;;
75793;SDS011;64418;47.536;19.074;2023-04-19T12:37:51;12.32;;;6.97;;
75793;SDS011;64418;47.536;19.074;2023-04-19T12:40:17;8.73;;;6.80;;
75793;SDS011;64418;47.536;19.074;2023-04-19T12:42:44;14.93;;;6.60;;
75793;SDS011;64418;47.536;19.074;2023-04-19T12:45:10;11.13;;;6.70;;
75793;SDS011;64418;47.536;19.074;2023-04-19T12:47:37;10.10;;;6.22;;
75793;SDS011;64418;47.536;19.074;2023-04-19T12:50:03;11.95;;;6.37;;
75793;SDS011;64418;47.536;19.074;2023-04-19T12:52:29;7.87;;;6.03;;
75793;SDS011;64418;47.536;19.074;2023-04-19T12:54:55;7.63;;;5.80;;
75793;SDS011;64418;47.536;19.074;2023-04-19T12:57:21;9.55;;;6.30;;
75793;SDS011;64418;47.536;19.074;2023-04-19T12:59:48;12.15;;;6.05;;
75793;SDS011;64418;47.536;19.074;2023-04-19T13:02:15;5.47;;;3.40;;
75793;SDS011;64418;47.536;19.074;2023-04-19T13:04:41;9.43;;;5.67;;
75793;SDS011;64418;47.536;19.074;2023-04-19T13:07:07;10.33;;;6.30;;
75793;SDS011;64418;47.536;19.074;2023-04-19T13:09:33;13.65;;;5.30;;
75793;SDS011;64418;47.536;19.074;2023-04-19T13:11:59;9.68;;;5.90;;
75793;SDS011;64418;47.536;19.074;2023-04-19T13:14:24;7.87;;;6.07;;
75793;SDS011;64418;47.536;19.074;2023-04-19T13:16:51;7.75;;;5.68;;
75793;SDS011;64418;47.536;19.074;2023-04-19T13:19:18;9.93;;;5.27;;
75793;SDS011;64418;47.536;19.074;2023-04-19T13:21:43;7.90;;;5.33;;
75793;SDS011;64418;47.536;19.074;2023-04-19T13:24:09;9.40;;;5.90;;
75793;SDS011;64418;47.536;19.074;2023-04-19T13:26:36;7.97;;;4.97;;
75793;SDS011;64418;47.536;19.074;2023-04-19T13:29:03;6.87;;;5.32;;
75793;SDS011;64418;47.536;19.074;2023-04-19T13:31:29;9.50;;;5.20;;
75793;SDS011;64418;47.536;19.074;2023-04-19T13:33:57;7.03;;;5.10;;
75793;SDS011;64418;47.536;19.074;2023-04-19T13:36:22;9.07;;;5.67;;
75793;SDS011;64418;47.536;19.074;2023-04-19T13:38:48;6.15;;;4.85;;
75793;SDS011;64418;47.536;19.074;2023-04-19T13:41:14;9.35;;;5.00;;
75793;SDS011;64418;47.536;19.074;2023-04-19T13:43:43;10.63;;;6.23;;
75793;SDS011;64418;47.536;19.074;2023-04-19T13:46:09;10.93;;;7.25;;
75793;SDS011;64418;47.536;19.074;2023-04-19T13:48:35;12.57;;;7.70;;
75793;SDS011;64418;47.536;19.074;2023-04-19T13:51:03;12.77;;;7.97;;
75793;SDS011;64418;47.536;19.074;2023-04-19T13:53:30;13.10;;;8.80;;
75793;SDS011;64418;47.536;19.074;2023-04-19T13:55:56;11.98;;;8.25;;
75793;SDS011;64418;47.536;19.074;2023-04-19T13:58:22;12.50;;;7.80;;
75793;SDS011;64418;47.536;19.074;2023-04-19T14:00:48;11.93;;;8.00;;
75793;SDS011;64418;47.536;19.074;2023-04-19T14:03:13;12.45;;;8.45;;
75793;SDS011;64418;47.536;19.074;2023-04-19T14:05:39;12.83;;;8.20;;
75793;SDS011;64418;47.536;19.074;2023-04-19T14:08:07;12.77;;;8.20;;
75793;SDS011;64418;47.536;19.074;2023-04-19T14:12:59;11.25;;;8.07;;
75793;SDS011;64418;47.536;19.074;2023-04-19T14:15:25;11.25;;;7.70;;
75793;SDS011;64418;47.536;19.074;2023-04-19T14:17:51;11.50;;;7.33;;
75793;SDS011;64418;47.536;19.074;2023-04-19T14:20:17;10.30;;;7.17;;
75793;SDS011;64418;47.536;19.074;2023-04-19T14:22:43;13.23;;;6.75;;
75793;SDS011;64418;47.536;19.074;2023-04-19T14:25:11;10.90;;;6.82;;
75793;SDS011;64418;47.536;19.074;2023-04-19T14:27:38;10.93;;;6.95;;
75793;SDS011;64418;47.536;19.074;2023-04-19T14:30:04;11.17;;;7.33;;
75793;SDS011;64418;47.536;19.074;2023-04-19T14:32:30;10.68;;;7.18;;
75793;SDS011;64418;47.536;19.074;2023-04-19T14:34:56;10.48;;;6.75;;
75793;SDS011;64418;47.536;19.074;2023-04-19T14:37:22;9.70;;;6.97;;
75793;SDS011;64418;47.536;19.074;2023-04-19T14:39:48;9.45;;;6.32;;
75793;SDS011;64418;47.536;19.074;2023-04-19T14:42:15;9.75;;;6.30;;